Terminal Aerodrome Forecast
Issued by NWS Duluth, MN

Home | Current Version | Previous Version | Text Only | Print | Product List | Glossary On
Versions: 1 2 3 4 5 6 7 8 9 10 11 12 13 14 15
057
FTUS43 KDLH 131124
TAFDLH
TAF
KDLH 131124Z 1312/1412 31011KT P6SM SKC
     FM131600 31008KT P6SM SKC
     FM132200 VRB04KT P6SM SKC
     FM140800 15010KT P6SM BKN150=

USA.gov is the U.S. government's official web portal to all federal, state and local government web resources and services.